Licking Creek, Pennsylvania
Current Conditions -  °F | °C
As of 12:53 AM on Wednesday 22 Oct 2014 (Local Time) from KAOO Reporting Station
Overcast Overcast  
Wind Chill: 49°   Ceiling: 1400
Heat Index: 49°   Visibility: 10mi
Dew Point: 47°   Wind: 0mph
Humidity: 93%   Direction: NA
Pressure: 29.96"   Gusts: NA
Location:  39.9765°N, 78.0835°W
Report Text: KAOO 220453Z AUTO 00000KT 10SM OVC014 09/08 A2996 RMK AO2 SLP147 T00940083 401440083
Loading
Personal Weather Stations






























Interactive Weather Map
Tropical Storm Tracking
New forecast layout! Learn more

10-Day Weather Forecast

Advertisements
Track Severe Weather on mobile